sensor_id;sensor_type;location;lat;lon;timestamp;P1;durP1;ratioP1;P2;durP2;ratioP2
62911;SDS011;49111;51.028;4.218;2022-09-20T00:47:03;3.97;;;2.53;;
62911;SDS011;49111;51.028;4.218;2022-09-20T00:54:06;3.95;;;2.65;;
62911;SDS011;49111;51.028;4.218;2022-09-20T01:01:09;4.88;;;2.83;;
62911;SDS011;49111;51.028;4.218;2022-09-20T04:37:31;8.25;;;3.95;;
62911;SDS011;49111;51.028;4.218;2022-09-20T05:38:44;5.22;;;3.40;;
62911;SDS011;49111;51.028;4.218;2022-09-20T06:02:31;7.00;;;4.03;;
62911;SDS011;49111;51.028;4.218;2022-09-20T06:10:09;8.57;;;4.90;;
62911;SDS011;49111;51.028;4.218;2022-09-20T06:17:35;12.00;;;4.93;;
62911;SDS011;49111;51.028;4.218;2022-09-20T06:24:50;7.32;;;4.95;;
62911;SDS011;49111;51.028;4.218;2022-09-20T06:41:00;7.38;;;4.60;;
62911;SDS011;49111;51.028;4.218;2022-09-20T07:09:48;10.55;;;5.50;;
62911;SDS011;49111;51.028;4.218;2022-09-20T07:51:50;11.75;;;6.78;;
62911;SDS011;49111;51.028;4.218;2022-09-20T08:07:58;13.18;;;6.22;;
62911;SDS011;49111;51.028;4.218;2022-09-20T08:19:33;15.23;;;7.22;;
62911;SDS011;49111;51.028;4.218;2022-09-20T08:26:33;9.52;;;5.80;;
62911;SDS011;49111;51.028;4.218;2022-09-20T10:05:34;5.57;;;2.15;;
62911;SDS011;49111;51.028;4.218;2022-09-20T10:21:47;4.60;;;2.20;;
62911;SDS011;49111;51.028;4.218;2022-09-20T11:17:39;3.67;;;1.10;;
62911;SDS011;49111;51.028;4.218;2022-09-20T11:39:53;1.98;;;0.93;;
62911;SDS011;49111;51.028;4.218;2022-09-20T12:44:04;5.30;;;1.25;;
62911;SDS011;49111;51.028;4.218;2022-09-20T12:46:54;2.55;;;0.95;;
62911;SDS011;49111;51.028;4.218;2022-09-20T12:56:14;3.42;;;1.52;;
62911;SDS011;49111;51.028;4.218;2022-09-20T12:58:51;3.90;;;1.57;;
62911;SDS011;49111;51.028;4.218;2022-09-20T13:03:48;3.75;;;1.10;;
62911;SDS011;49111;51.028;4.218;2022-09-20T13:08:42;3.63;;;1.40;;
62911;SDS011;49111;51.028;4.218;2022-09-20T13:11:19;4.88;;;1.45;;
62911;SDS011;49111;51.028;4.218;2022-09-20T13:14:01;1.73;;;1.00;;
62911;SDS011;49111;51.028;4.218;2022-09-20T13:19:21;2.60;;;0.93;;
62911;SDS011;49111;51.028;4.218;2022-09-20T13:21:55;4.03;;;1.20;;
62911;SDS011;49111;51.028;4.218;2022-09-20T13:24:31;4.97;;;1.20;;
62911;SDS011;49111;51.028;4.218;2022-09-20T13:27:05;4.50;;;1.63;;
62911;SDS011;49111;51.028;4.218;2022-09-20T13:29:39;3.22;;;1.30;;
62911;SDS011;49111;51.028;4.218;2022-09-20T13:32:16;2.58;;;1.30;;
62911;SDS011;49111;51.028;4.218;2022-09-20T13:37:31;2.35;;;1.40;;
62911;SDS011;49111;51.028;4.218;2022-09-20T13:39:59;3.45;;;2.10;;
62911;SDS011;49111;51.028;4.218;2022-09-20T13:42:27;3.10;;;1.80;;
62911;SDS011;49111;51.028;4.218;2022-09-20T13:44:54;4.43;;;1.98;;
62911;SDS011;49111;51.028;4.218;2022-09-20T13:47:26;4.03;;;2.35;;
62911;SDS011;49111;51.028;4.218;2022-09-20T13:52:53;5.82;;;2.40;;
62911;SDS011;49111;51.028;4.218;2022-09-20T13:57:53;6.35;;;3.28;;
62911;SDS011;49111;51.028;4.218;2022-09-20T14:00:20;2.90;;;1.80;;
62911;SDS011;49111;51.028;4.218;2022-09-20T14:02:47;3.45;;;1.80;;
62911;SDS011;49111;51.028;4.218;2022-09-20T14:05:15;3.45;;;1.80;;
62911;SDS011;49111;51.028;4.218;2022-09-20T14:07:44;3.88;;;1.63;;
62911;SDS011;49111;51.028;4.218;2022-09-20T14:12:58;3.60;;;1.27;;
62911;SDS011;49111;51.028;4.218;2022-09-20T14:15:27;7.60;;;2.00;;
62911;SDS011;49111;51.028;4.218;2022-09-20T14:18:00;2.92;;;1.50;;
62911;SDS011;49111;51.028;4.218;2022-09-20T14:20:28;4.93;;;1.42;;
62911;SDS011;49111;51.028;4.218;2022-09-20T14:22:55;7.43;;;1.90;;
62911;SDS011;49111;51.028;4.218;2022-09-20T14:25:22;4.13;;;1.55;;
62911;SDS011;49111;51.028;4.218;2022-09-20T14:28:22;2.55;;;1.77;;
62911;SDS011;49111;51.028;4.218;2022-09-20T14:30:43;5.20;;;1.27;;
62911;SDS011;49111;51.028;4.218;2022-09-20T14:33:15;3.55;;;1.60;;
62911;SDS011;49111;51.028;4.218;2022-09-20T14:35:50;2.40;;;1.42;;
62911;SDS011;49111;51.028;4.218;2022-09-20T14:38:17;4.00;;;1.50;;
62911;SDS011;49111;51.028;4.218;2022-09-20T14:40:47;3.40;;;1.30;;
62911;SDS011;49111;51.028;4.218;2022-09-20T14:43:46;2.53;;;1.30;;
62911;SDS011;49111;51.028;4.218;2022-09-20T14:46:16;2.45;;;1.40;;
62911;SDS011;49111;51.028;4.218;2022-09-20T14:48:42;3.60;;;1.30;;
62911;SDS011;49111;51.028;4.218;2022-09-20T14:51:19;3.05;;;1.65;;
62911;SDS011;49111;51.028;4.218;2022-09-20T14:56:34;3.58;;;1.85;;
62911;SDS011;49111;51.028;4.218;2022-09-20T14:59:02;4.15;;;1.70;;
62911;SDS011;49111;51.028;4.218;2022-09-20T15:01:31;2.88;;;1.67;;
62911;SDS011;49111;51.028;4.218;2022-09-20T15:03:59;2.50;;;1.75;;
62911;SDS011;49111;51.028;4.218;2022-09-20T15:06:33;3.92;;;2.03;;
62911;SDS011;49111;51.028;4.218;2022-09-20T15:09:00;4.00;;;1.52;;
62911;SDS011;49111;51.028;4.218;2022-09-20T15:11:26;3.42;;;1.38;;
62911;SDS011;49111;51.028;4.218;2022-09-20T15:13:54;2.83;;;1.80;;
62911;SDS011;49111;51.028;4.218;2022-09-20T15:16:19;4.85;;;2.33;;
62911;SDS011;49111;51.028;4.218;2022-09-20T15:18:46;3.80;;;1.80;;
62911;SDS011;49111;51.028;4.218;2022-09-20T15:21:11;2.47;;;1.60;;
62911;SDS011;49111;51.028;4.218;2022-09-20T15:23:38;4.10;;;1.60;;
62911;SDS011;49111;51.028;4.218;2022-09-20T15:26:04;4.38;;;1.52;;
62911;SDS011;49111;51.028;4.218;2022-09-20T15:28:34;4.50;;;1.98;;
62911;SDS011;49111;51.028;4.218;2022-09-20T15:30:59;3.08;;;1.60;;
62911;SDS011;49111;51.028;4.218;2022-09-20T15:33:27;3.85;;;1.67;;
62911;SDS011;49111;51.028;4.218;2022-09-20T15:35:54;5.28;;;2.80;;
62911;SDS011;49111;51.028;4.218;2022-09-20T15:38:20;3.10;;;1.50;;
62911;SDS011;49111;51.028;4.218;2022-09-20T15:40:47;2.90;;;1.42;;
62911;SDS011;49111;51.028;4.218;2022-09-20T15:43:15;2.35;;;1.75;;
62911;SDS011;49111;51.028;4.218;2022-09-20T15:45:46;3.72;;;1.60;;
62911;SDS011;49111;51.028;4.218;2022-09-20T15:48:14;1.73;;;1.20;;
62911;SDS011;49111;51.028;4.218;2022-09-20T15:50:57;2.08;;;1.40;;
62911;SDS011;49111;51.028;4.218;2022-09-20T15:53:31;2.97;;;1.70;;
62911;SDS011;49111;51.028;4.218;2022-09-20T15:55:58;4.53;;;1.77;;
62911;SDS011;49111;51.028;4.218;2022-09-20T15:58:26;5.55;;;1.50;;
62911;SDS011;49111;51.028;4.218;2022-09-20T16:01:06;2.88;;;1.00;;
62911;SDS011;49111;51.028;4.218;2022-09-20T16:03:33;3.83;;;1.13;;
62911;SDS011;49111;51.028;4.218;2022-09-20T16:06:01;3.70;;;1.10;;
62911;SDS011;49111;51.028;4.218;2022-09-20T16:08:32;7.15;;;1.15;;
62911;SDS011;49111;51.028;4.218;2022-09-20T16:10:59;1.88;;;1.00;;
62911;SDS011;49111;51.028;4.218;2022-09-20T16:13:25;4.07;;;1.48;;
62911;SDS011;49111;51.028;4.218;2022-09-20T16:15:55;6.35;;;1.00;;
62911;SDS011;49111;51.028;4.218;2022-09-20T16:18:21;1.38;;;0.93;;
62911;SDS011;49111;51.028;4.218;2022-09-20T16:21:07;4.13;;;1.17;;
62911;SDS011;49111;51.028;4.218;2022-09-20T16:23:36;2.05;;;1.20;;
62911;SDS011;49111;51.028;4.218;2022-09-20T16:26:03;2.63;;;1.33;;
62911;SDS011;49111;51.028;4.218;2022-09-20T16:28:30;2.58;;;1.20;;
62911;SDS011;49111;51.028;4.218;2022-09-20T16:30:56;5.82;;;1.52;;
62911;SDS011;49111;51.028;4.218;2022-09-20T16:33:23;1.63;;;0.80;;
62911;SDS011;49111;51.028;4.218;2022-09-20T16:35:49;3.42;;;1.00;;
62911;SDS011;49111;51.028;4.218;2022-09-20T16:38:15;1.92;;;1.13;;
62911;SDS011;49111;51.028;4.218;2022-09-20T16:40:42;3.80;;;1.35;;
62911;SDS011;49111;51.028;4.218;2022-09-20T16:43:08;2.35;;;1.27;;
62911;SDS011;49111;51.028;4.218;2022-09-20T16:45:34;7.15;;;2.17;;
62911;SDS011;49111;51.028;4.218;2022-09-20T16:48:00;3.47;;;1.50;;
62911;SDS011;49111;51.028;4.218;2022-09-20T16:50:27;3.05;;;1.00;;
62911;SDS011;49111;51.028;4.218;2022-09-20T16:52:53;2.95;;;1.33;;
62911;SDS011;49111;51.028;4.218;2022-09-20T16:55:20;1.75;;;1.30;;
62911;SDS011;49111;51.028;4.218;2022-09-20T16:57:48;3.67;;;1.60;;
62911;SDS011;49111;51.028;4.218;2022-09-20T17:00:16;3.17;;;1.38;;
62911;SDS011;49111;51.028;4.218;2022-09-20T17:02:47;3.65;;;1.42;;
62911;SDS011;49111;51.028;4.218;2022-09-20T17:05:14;2.58;;;1.17;;
62911;SDS011;49111;51.028;4.218;2022-09-20T17:07:40;3.05;;;1.30;;
62911;SDS011;49111;51.028;4.218;2022-09-20T17:10:08;3.10;;;1.55;;
62911;SDS011;49111;51.028;4.218;2022-09-20T17:12:35;2.28;;;1.33;;
62911;SDS011;49111;51.028;4.218;2022-09-20T17:15:09;2.72;;;1.88;;
62911;SDS011;49111;51.028;4.218;2022-09-20T17:17:37;1.30;;;1.00;;
62911;SDS011;49111;51.028;4.218;2022-09-20T17:20:04;5.22;;;1.20;;
62911;SDS011;49111;51.028;4.218;2022-09-20T17:22:32;3.95;;;1.50;;
62911;SDS011;49111;51.028;4.218;2022-09-20T17:24:58;1.55;;;1.40;;
62911;SDS011;49111;51.028;4.218;2022-09-20T17:27:23;2.65;;;1.30;;
62911;SDS011;49111;51.028;4.218;2022-09-20T17:29:49;3.10;;;1.40;;
62911;SDS011;49111;51.028;4.218;2022-09-20T17:32:15;5.80;;;1.70;;
62911;SDS011;49111;51.028;4.218;2022-09-20T17:34:41;4.50;;;1.60;;
62911;SDS011;49111;51.028;4.218;2022-09-20T17:37:07;4.28;;;1.50;;
62911;SDS011;49111;51.028;4.218;2022-09-20T17:39:34;3.15;;;1.50;;
62911;SDS011;49111;51.028;4.218;2022-09-20T17:42:00;3.05;;;1.75;;
62911;SDS011;49111;51.028;4.218;2022-09-20T17:44:26;4.38;;;1.92;;
62911;SDS011;49111;51.028;4.218;2022-09-20T17:46:52;2.75;;;1.70;;
62911;SDS011;49111;51.028;4.218;2022-09-20T17:49:19;3.20;;;1.92;;
62911;SDS011;49111;51.028;4.218;2022-09-20T17:51:47;5.05;;;1.67;;
62911;SDS011;49111;51.028;4.218;2022-09-20T17:54:17;7.72;;;2.40;;
62911;SDS011;49111;51.028;4.218;2022-09-20T17:56:45;3.85;;;2.17;;
62911;SDS011;49111;51.028;4.218;2022-09-20T17:59:13;6.38;;;2.10;;
62911;SDS011;49111;51.028;4.218;2022-09-20T18:01:40;3.60;;;2.47;;
62911;SDS011;49111;51.028;4.218;2022-09-20T18:04:07;6.10;;;2.58;;
62911;SDS011;49111;51.028;4.218;2022-09-20T18:06:36;5.07;;;1.90;;
62911;SDS011;49111;51.028;4.218;2022-09-20T18:09:03;5.00;;;1.75;;
62911;SDS011;49111;51.028;4.218;2022-09-20T18:11:40;5.32;;;2.10;;
62911;SDS011;49111;51.028;4.218;2022-09-20T18:14:13;4.70;;;1.83;;
62911;SDS011;49111;51.028;4.218;2022-09-20T18:16:40;4.90;;;1.95;;
62911;SDS011;49111;51.028;4.218;2022-09-20T18:19:08;3.63;;;1.95;;
62911;SDS011;49111;51.028;4.218;2022-09-20T18:21:35;5.53;;;2.28;;
62911;SDS011;49111;51.028;4.218;2022-09-20T18:24:04;5.30;;;2.13;;
62911;SDS011;49111;51.028;4.218;2022-09-20T18:26:30;4.03;;;2.33;;
62911;SDS011;49111;51.028;4.218;2022-09-20T18:28:58;3.90;;;2.20;;
62911;SDS011;49111;51.028;4.218;2022-09-20T18:34:17;6.95;;;2.42;;
62911;SDS011;49111;51.028;4.218;2022-09-20T18:36:49;5.00;;;2.35;;
62911;SDS011;49111;51.028;4.218;2022-09-20T18:39:21;4.38;;;2.63;;
62911;SDS011;49111;51.028;4.218;2022-09-20T18:41:48;5.72;;;3.17;;
62911;SDS011;49111;51.028;4.218;2022-09-20T18:44:15;4.00;;;2.67;;
62911;SDS011;49111;51.028;4.218;2022-09-20T18:46:42;5.35;;;2.80;;
62911;SDS011;49111;51.028;4.218;2022-09-20T18:49:09;4.72;;;3.08;;
62911;SDS011;49111;51.028;4.218;2022-09-20T18:51:41;4.13;;;2.78;;
62911;SDS011;49111;51.028;4.218;2022-09-20T18:54:08;5.80;;;3.10;;
62911;SDS011;49111;51.028;4.218;2022-09-20T18:56:35;6.30;;;3.28;;
62911;SDS011;49111;51.028;4.218;2022-09-20T19:07:24;8.02;;;3.53;;
62911;SDS011;49111;51.028;4.218;2022-09-20T19:12:40;5.15;;;3.35;;
62911;SDS011;49111;51.028;4.218;2022-09-20T19:20:33;7.45;;;3.15;;
62911;SDS011;49111;51.028;4.218;2022-09-20T19:26:01;6.78;;;3.55;;
62911;SDS011;49111;51.028;4.218;2022-09-20T19:28:37;7.22;;;3.80;;
62911;SDS011;49111;51.028;4.218;2022-09-20T19:31:03;4.93;;;3.22;;
62911;SDS011;49111;51.028;4.218;2022-09-20T19:33:30;6.93;;;3.60;;
62911;SDS011;49111;51.028;4.218;2022-09-20T19:35:56;6.55;;;3.53;;
62911;SDS011;49111;51.028;4.218;2022-09-20T19:39:25;7.13;;;3.45;;
62911;SDS011;49111;51.028;4.218;2022-09-20T19:44:15;6.85;;;3.60;;
62911;SDS011;49111;51.028;4.218;2022-09-20T19:47:13;5.82;;;3.20;;
62911;SDS011;49111;51.028;4.218;2022-09-20T19:50:02;9.15;;;3.55;;
62911;SDS011;49111;51.028;4.218;2022-09-20T19:52:28;5.38;;;3.53;;
62911;SDS011;49111;51.028;4.218;2022-09-20T19:54:55;5.13;;;3.38;;
62911;SDS011;49111;51.028;4.218;2022-09-20T19:57:21;12.75;;;4.10;;
62911;SDS011;49111;51.028;4.218;2022-09-20T19:59:53;8.40;;;3.63;;
62911;SDS011;49111;51.028;4.218;2022-09-20T20:02:20;6.45;;;4.05;;
62911;SDS011;49111;51.028;4.218;2022-09-20T20:04:47;8.65;;;3.97;;
62911;SDS011;49111;51.028;4.218;2022-09-20T20:07:15;10.73;;;5.45;;
62911;SDS011;49111;51.028;4.218;2022-09-20T20:09:56;10.50;;;4.97;;
62911;SDS011;49111;51.028;4.218;2022-09-20T20:12:42;9.35;;;5.25;;
62911;SDS011;49111;51.028;4.218;2022-09-20T20:18:00;6.75;;;4.07;;
62911;SDS011;49111;51.028;4.218;2022-09-20T20:20:38;7.25;;;4.35;;
62911;SDS011;49111;51.028;4.218;2022-09-20T20:25:56;6.20;;;4.78;;
62911;SDS011;49111;51.028;4.218;2022-09-20T20:28:31;8.73;;;5.18;;
62911;SDS011;49111;51.028;4.218;2022-09-20T20:30:58;8.10;;;5.15;;
62911;SDS011;49111;51.028;4.218;2022-09-20T20:33:26;8.93;;;4.45;;
62911;SDS011;49111;51.028;4.218;2022-09-20T20:35:53;7.00;;;3.88;;
62911;SDS011;49111;51.028;4.218;2022-09-20T20:38:24;8.68;;;4.13;;
62911;SDS011;49111;51.028;4.218;2022-09-20T20:40:58;10.02;;;4.30;;
62911;SDS011;49111;51.028;4.218;2022-09-20T20:43:29;9.30;;;4.38;;
62911;SDS011;49111;51.028;4.218;2022-09-20T20:46:00;8.20;;;4.95;;
62911;SDS011;49111;51.028;4.218;2022-09-20T20:48:26;7.43;;;4.80;;
62911;SDS011;49111;51.028;4.218;2022-09-20T20:51:06;6.40;;;4.20;;
62911;SDS011;49111;51.028;4.218;2022-09-20T20:53:38;9.38;;;4.97;;
62911;SDS011;49111;51.028;4.218;2022-09-20T20:56:10;8.13;;;5.30;;
62911;SDS011;49111;51.028;4.218;2022-09-20T20:58:42;7.38;;;4.57;;
62911;SDS011;49111;51.028;4.218;2022-09-20T21:01:17;10.95;;;5.28;;
62911;SDS011;49111;51.028;4.218;2022-09-20T21:03:49;6.97;;;4.85;;
62911;SDS011;49111;51.028;4.218;2022-09-20T21:06:16;9.30;;;5.15;;
62911;SDS011;49111;51.028;4.218;2022-09-20T21:08:43;9.15;;;6.90;;
62911;SDS011;49111;51.028;4.218;2022-09-20T21:11:12;6.97;;;5.15;;
62911;SDS011;49111;51.028;4.218;2022-09-20T21:13:39;10.32;;;6.28;;
62911;SDS011;49111;51.028;4.218;2022-09-20T21:16:09;8.95;;;6.10;;
62911;SDS011;49111;51.028;4.218;2022-09-20T21:18:38;11.98;;;6.32;;
62911;SDS011;49111;51.028;4.218;2022-09-20T21:21:28;9.98;;;6.65;;
62911;SDS011;49111;51.028;4.218;2022-09-20T21:23:56;9.70;;;6.05;;
62911;SDS011;49111;51.028;4.218;2022-09-20T21:26:24;8.57;;;6.47;;
62911;SDS011;49111;51.028;4.218;2022-09-20T21:28:55;9.57;;;5.95;;
62911;SDS011;49111;51.028;4.218;2022-09-20T21:31:24;11.20;;;6.88;;
62911;SDS011;49111;51.028;4.218;2022-09-20T21:33:51;8.50;;;6.05;;
62911;SDS011;49111;51.028;4.218;2022-09-20T21:36:18;9.77;;;6.45;;
62911;SDS011;49111;51.028;4.218;2022-09-20T21:38:45;10.68;;;6.55;;
62911;SDS011;49111;51.028;4.218;2022-09-20T21:43:49;10.07;;;6.40;;
62911;SDS011;49111;51.028;4.218;2022-09-20T21:46:18;9.70;;;6.20;;
62911;SDS011;49111;51.028;4.218;2022-09-20T21:48:45;9.70;;;6.13;;
62911;SDS011;49111;51.028;4.218;2022-09-20T21:51:12;7.38;;;5.40;;
62911;SDS011;49111;51.028;4.218;2022-09-20T21:53:39;9.93;;;6.13;;
62911;SDS011;49111;51.028;4.218;2022-09-20T21:56:08;10.13;;;5.85;;
62911;SDS011;49111;51.028;4.218;2022-09-20T21:58:36;8.75;;;6.13;;
62911;SDS011;49111;51.028;4.218;2022-09-20T22:01:08;8.07;;;5.50;;
62911;SDS011;49111;51.028;4.218;2022-09-20T22:03:37;9.67;;;6.07;;
62911;SDS011;49111;51.028;4.218;2022-09-20T22:06:04;8.68;;;5.75;;
62911;SDS011;49111;51.028;4.218;2022-09-20T22:08:35;10.48;;;6.13;;
62911;SDS011;49111;51.028;4.218;2022-09-20T22:11:01;9.25;;;5.60;;
62911;SDS011;49111;51.028;4.218;2022-09-20T22:13:28;8.68;;;5.05;;
62911;SDS011;49111;51.028;4.218;2022-09-20T22:16:01;8.27;;;5.50;;
62911;SDS011;49111;51.028;4.218;2022-09-20T22:18:32;7.25;;;5.60;;
62911;SDS011;49111;51.028;4.218;2022-09-20T22:21:06;8.73;;;5.47;;
62911;SDS011;49111;51.028;4.218;2022-09-20T22:23:50;8.50;;;6.25;;
62911;SDS011;49111;51.028;4.218;2022-09-20T22:26:19;8.50;;;5.72;;
62911;SDS011;49111;51.028;4.218;2022-09-20T22:28:45;10.35;;;7.35;;
62911;SDS011;49111;51.028;4.218;2022-09-20T22:31:19;9.23;;;6.43;;
62911;SDS011;49111;51.028;4.218;2022-09-20T22:33:48;13.90;;;7.22;;
62911;SDS011;49111;51.028;4.218;2022-09-20T22:36:18;10.48;;;7.95;;
62911;SDS011;49111;51.028;4.218;2022-09-20T22:38:49;10.63;;;7.07;;
62911;SDS011;49111;51.028;4.218;2022-09-20T22:41:18;9.88;;;7.07;;
62911;SDS011;49111;51.028;4.218;2022-09-20T22:43:45;9.80;;;7.00;;
62911;SDS011;49111;51.028;4.218;2022-09-20T22:46:12;11.40;;;7.93;;
62911;SDS011;49111;51.028;4.218;2022-09-20T22:48:46;11.10;;;7.97;;
62911;SDS011;49111;51.028;4.218;2022-09-20T22:51:14;9.80;;;6.68;;
62911;SDS011;49111;51.028;4.218;2022-09-20T22:53:42;10.32;;;6.68;;
62911;SDS011;49111;51.028;4.218;2022-09-20T22:56:16;11.15;;;6.85;;
62911;SDS011;49111;51.028;4.218;2022-09-20T22:58:48;10.55;;;6.50;;
62911;SDS011;49111;51.028;4.218;2022-09-20T23:01:20;9.38;;;7.25;;
62911;SDS011;49111;51.028;4.218;2022-09-20T23:03:51;11.93;;;8.20;;
62911;SDS011;49111;51.028;4.218;2022-09-20T23:09:21;11.20;;;6.75;;
62911;SDS011;49111;51.028;4.218;2022-09-20T23:11:48;9.57;;;5.88;;
62911;SDS011;49111;51.028;4.218;2022-09-20T23:14:16;10.77;;;6.55;;
62911;SDS011;49111;51.028;4.218;2022-09-20T23:16:43;9.63;;;7.10;;
62911;SDS011;49111;51.028;4.218;2022-09-20T23:19:10;10.27;;;6.22;;
62911;SDS011;49111;51.028;4.218;2022-09-20T23:21:37;9.93;;;6.68;;
62911;SDS011;49111;51.028;4.218;2022-09-20T23:24:05;10.30;;;7.28;;
62911;SDS011;49111;51.028;4.218;2022-09-20T23:26:34;11.07;;;6.82;;
62911;SDS011;49111;51.028;4.218;2022-09-20T23:29:01;10.93;;;7.15;;
62911;SDS011;49111;51.028;4.218;2022-09-20T23:31:32;10.75;;;6.82;;
62911;SDS011;49111;51.028;4.218;2022-09-20T23:34:01;9.80;;;6.55;;
62911;SDS011;49111;51.028;4.218;2022-09-20T23:36:29;8.25;;;5.93;;
62911;SDS011;49111;51.028;4.218;2022-09-20T23:38:56;10.90;;;6.78;;
62911;SDS011;49111;51.028;4.218;2022-09-20T23:41:23;10.80;;;6.97;;
62911;SDS011;49111;51.028;4.218;2022-09-20T23:43:50;9.50;;;6.78;;
62911;SDS011;49111;51.028;4.218;2022-09-20T23:46:17;11.63;;;7.20;;
62911;SDS011;49111;51.028;4.218;2022-09-20T23:48:44;11.10;;;6.68;;
62911;SDS011;49111;51.028;4.218;2022-09-20T23:51:14;13.63;;;7.03;;
62911;SDS011;49111;51.028;4.218;2022-09-20T23:53:41;9.90;;;7.15;;
62911;SDS011;49111;51.028;4.218;2022-09-20T23:56:08;9.85;;;7.10;;
62911;SDS011;49111;51.028;4.218;2022-09-20T23:58:35;10.55;;;6.60;;
